ZPM / VH-ZPM 7700 Squawk Report (5th of December, 2018)

Time Lat Lon Altitude Heading Speed Vertical Rate
2018-12-05 01:54:47 GMT -37.730774 144.916351 125 268 109 -640
2018-12-05 01:54:43 GMT -37.730682 144.918259 150 268 110 -448
2018-12-05 01:54:32 GMT -37.730530 144.925034 250 268 114 -704
2018-12-05 01:54:23 GMT -37.730301 144.932159 425 271 118 -960
2018-12-05 01:54:20 GMT -37.730301 144.933167 425 271 119 -960
2018-12-05 01:54:10 GMT -37.731285 144.940720 575 297 130 -896
2018-12-05 01:54:04 GMT -37.733276 144.945496 675 305 132 -576
2018-12-05 01:53:59 GMT -37.735432 144.947876 725 327 142 -832
2018-12-05 01:53:53 GMT -37.738922 144.950027 800 342 145 -832
2018-12-05 01:53:48 GMT -37.742741 144.951050 900 355 145 -832
2018-12-05 01:53:42 GMT -37.746277 144.951096 950 5 143 -704
2018-12-05 01:53:36 GMT -37.749939 144.950165 1,025 18 145 -640
2018-12-05 01:53:33 GMT -37.751911 144.949249 1,075 22 145 -576
2018-12-05 01:53:30 GMT -37.753830 144.948181 1,100 26 147 -512
2018-12-05 01:53:25 GMT -37.757080 144.945892 1,150 32 150 -512
2018-12-05 01:53:19 GMT -37.760429 144.943039 1,200 36 155 -704
2018-12-05 01:53:11 GMT -37.764542 144.939117 1,275 36 160 0
2018-12-05 01:53:08 GMT -37.767132 144.936722 1,275 35 162 64
2018-12-05 01:53:03 GMT -37.769897 144.934265 1,275 34 165 -128
2018-12-05 01:53:00 GMT -37.774349 144.930511 1,300 33 167 -576
2018-12-05 01:52:56 GMT -37.774349 144.930511 1,300 33 167 -576
2018-12-05 01:52:51 GMT -37.778046 144.927429 1,400 30 167 -448
2018-12-05 01:52:48 GMT -37.779049 144.926620 1,350 32 167 -512
2018-12-05 01:52:45 GMT -37.781616 144.924622 1,375 30 167 -448
2018-12-05 01:52:40 GMT -37.785194 144.922089 1,425 29 167 -384
2018-12-05 01:52:37 GMT -37.786266 144.921310 1,425 28 167 -448
2018-12-05 01:52:34 GMT -37.789433 144.919159 1,525 25 167 -768
2018-12-05 01:52:30 GMT -37.792225 144.917435 1,525 25 167 -768
2018-12-05 01:52:27 GMT -37.794250 144.916214 1,550 25 167 -768
2018-12-05 01:52:22 GMT -37.797363 144.914398 1,600 23 166 -704
2018-12-05 01:52:19 GMT -37.800613 144.912643 1,675 22 165 -896
2018-12-05 01:52:15 GMT -37.802307 144.911774 1,750 20 163 -640
2018-12-05 01:52:08 GMT -37.807728 144.909256 1,775 19 161 -128
2018-12-05 01:52:04 GMT -37.810364 144.908035 1,800 19 163 64
2018-12-05 01:52:00 GMT -37.813202 144.906754 1,775 20 166 0
2018-12-05 01:51:56 GMT -37.816059 144.905426 1,775 19 167 0
2018-12-05 01:51:53 GMT -37.818573 144.904297 1,775 19 169 128
2018-12-05 01:51:49 GMT -37.821625 144.903000 1,775 19 171 0
2018-12-05 01:51:44 GMT -37.824718 144.901672 1,825 18 174 -256
2018-12-05 01:51:41 GMT -37.827438 144.900497 1,800 18 175 -320
2018-12-05 01:51:38 GMT -37.833096 144.898209 1,825 17 176 192
2018-12-05 01:51:34 GMT -37.833096 144.898209 1,825 17 177 576
2018-12-05 01:51:30 GMT -37.836365 144.896927 1,775 16 181 1216
2018-12-05 01:51:25 GMT -37.840405 144.895584 1,675 14 189 1216
2018-12-05 01:51:22 GMT -37.842594 144.894806 1,625 13 195 320
2018-12-05 01:51:18 GMT -37.846252 144.893768 1,575 11 197 -320
2018-12-05 01:51:13 GMT -37.849575 144.892944 1,600 10 197 -448
2018-12-05 01:51:10 GMT -37.853622 144.892075 1,625 9 194 192
2018-12-05 01:51:05 GMT -37.857815 144.891220 1,625 8 195 704
2018-12-05 01:51:02 GMT -37.860397 144.890732 1,575 7 195 640
2018-12-05 01:50:59 GMT -37.867126 144.889572 1,525 8 199 512
2018-12-05 01:50:55 GMT -37.870605 144.888916 1,500 8 198 704
2018-12-05 01:50:51 GMT -37.870605 144.888916 1,500 8 200 832
2018-12-05 01:50:47 GMT -37.874390 144.888168 1,425 10 203 640
2018-12-05 01:50:43 GMT -37.878204 144.887283 1,375 10 205 192
2018-12-05 01:50:40 GMT -37.881042 144.886581 1,375 10 206 256
2018-12-05 01:50:37 GMT -37.884117 144.885849 1,350 10 207 320
2018-12-05 01:50:32 GMT -37.888447 144.884766 1,325 10 209 576
2018-12-05 01:50:28 GMT -37.891937 144.883926 1,300 10 210 512
2018-12-05 01:50:23 GMT -37.896175 144.882980 1,275 9 213 -256
2018-12-05 01:50:20 GMT -37.899712 144.882202 1,300 10 214 -1408
2018-12-05 01:50:17 GMT -37.903107 144.881439 1,400 10 210 -1280
2018-12-05 01:50:14 GMT -37.906044 144.880707 1,450 10 206 -576
2018-12-05 01:50:09 GMT -37.910614 144.879623 1,475 11 204 320
2018-12-05 01:50:05 GMT -37.913773 144.878754 1,475 12 203 384
2018-12-05 01:50:02 GMT -37.916565 144.877991 1,450 13 204 448
2018-12-05 01:49:57 GMT -37.921326 144.876358 1,425 17 207 576
2018-12-05 01:49:54 GMT -37.924210 144.875137 1,400 20 206 768
2018-12-05 01:49:49 GMT -37.928947 144.872589 1,325 26 210 384
2018-12-05 01:49:46 GMT -37.931671 144.870865 1,300 28 212 256
2018-12-05 01:49:43 GMT -37.933731 144.869461 1,275 29 213 -128
2018-12-05 01:49:38 GMT -37.938492 144.866074 1,300 28 214 704
2018-12-05 01:49:32 GMT -37.943436 144.862686 1,250 28 216 512
2018-12-05 01:49:27 GMT -37.947800 144.859695 1,225 27 219 -320
2018-12-05 01:49:20 GMT -37.954102 144.855606 1,225 26 221 1152
2018-12-05 01:49:16 GMT -37.957809 144.853333 1,150 26 225 320
2018-12-05 01:49:09 GMT -37.964607 144.849243 1,225 23 228 -1344
2018-12-05 01:49:04 GMT -37.969635 144.846497 1,325 23 227 -1216
2018-12-05 01:48:59 GMT -37.974243 144.844269 1,400 19 224 -832
2018-12-05 01:48:55 GMT -37.979919 144.841766 1,500 18 222 -832
2018-12-05 01:48:47 GMT -37.986740 144.838776 1,575 18 219 -512
2018-12-05 01:48:41 GMT -37.990585 144.837143 1,600 18 219 -832
2018-12-05 01:48:37 GMT -37.996216 144.835098 1,675 16 217 -256
2018-12-05 01:48:32 GMT -38.000107 144.833694 1,700 15 217 320
2018-12-05 01:48:25 GMT -38.007248 144.831207 1,650 15 221 0
2018-12-05 01:48:21 GMT -38.011391 144.829773 1,650 15 222 -256
2018-12-05 01:48:13 GMT -38.019913 144.826797 1,725 15 221 -192
2018-12-05 01:48:10 GMT -38.022888 144.825714 1,725 15 221 128
2018-12-05 01:48:03 GMT -38.029724 144.823242 1,700 15 224 192
2018-12-05 01:47:58 GMT -38.033981 144.821838 1,675 12 226 896
2018-12-05 01:47:50 GMT -38.042542 144.819550 1,600 10 234 -256
2018-12-05 01:47:47 GMT -38.045975 144.818741 1,625 10 234 -192
2018-12-05 01:47:39 GMT -38.054268 144.816940 1,650 9 237 -64
2018-12-05 01:47:36 GMT -38.058060 144.816162 1,650 8 238 -128
2018-12-05 01:47:28 GMT -38.066895 144.814713 1,650 6 243 -960
2018-12-05 01:47:24 GMT -38.070969 144.814117 1,700 6 243 -1280
2018-12-05 01:47:17 GMT -38.079124 144.813232 1,825 2 242 -768
2018-12-05 01:47:13 GMT -38.083694 144.813065 1,875 0 242 -832
2018-12-05 01:47:05 GMT -38.091980 144.813477 2,000 356 240 -640
2018-12-05 01:47:02 GMT -38.096008 144.814011 2,050 355 240 -256
2018-12-05 01:46:53 GMT -38.104660 144.815170 2,050 5 231 -1408
2018-12-05 01:46:50 GMT -38.108963 144.815521 2,000 0 246 192
2018-12-05 01:46:43 GMT -38.117344 144.814972 2,100 3 247 -1600
2018-12-05 01:46:39 GMT -38.121674 144.814560 2,200 3 244 -1408
2018-12-05 01:46:31 GMT -38.130753 144.813766 2,375 4 241 -1728
2018-12-05 01:46:27 GMT -38.134663 144.813416 2,475 4 238 -1856
2018-12-05 01:46:20 GMT -38.142609 144.812668 2,700 4 231 -1344
2018-12-05 01:46:16 GMT -38.146637 144.812195 2,775 5 229 -1408
2018-12-05 01:46:09 GMT -38.154831 144.811142 2,950 4 223 -1088
2018-12-05 01:46:05 GMT -38.158638 144.810791 3,025 3 222 -960
2018-12-05 01:45:57 GMT -38.166595 144.810196 3,100 3 219 -960
2018-12-05 01:45:52 GMT -38.170715 144.809860 3,225 2 215 -1088
2018-12-05 01:45:49 GMT -38.175022 144.809601 3,300 1 213 -896
2018-12-05 01:45:46 GMT -38.177856 144.809448 3,325 1 212 -832
2018-12-05 01:45:42 GMT -38.181446 144.809296 3,375 2 210 -832
2018-12-05 01:45:34 GMT -38.188988 144.809006 3,475 0 207 -960
2018-12-05 01:45:31 GMT -38.192139 144.809036 3,550 359 204 -192
2018-12-05 01:45:23 GMT -38.199787 144.809418 3,525 357 205 256
2018-12-05 01:45:19 GMT -38.203049 144.809662 3,525 356 206 384
2018-12-05 01:45:11 GMT -38.211334 144.810608 3,475 355 210 -64
2018-12-05 01:45:08 GMT -38.214340 144.810913 3,475 356 211 -256
2018-12-05 01:45:00 GMT -38.222168 144.811722 3,550 357 210 -512
2018-12-05 01:44:57 GMT -38.225281 144.811966 3,575 358 210 -512
2018-12-05 01:44:51 GMT -38.230793 144.812225 3,600 359 209 -512
2018-12-05 01:44:48 GMT -38.233612 144.812317 3,625 359 208 -640
2018-12-05 01:44:45 GMT -38.236130 144.812424 3,675 359 207 -576
2018-12-05 01:44:40 GMT -38.241779 144.812576 3,700 0 206 -192
2018-12-05 01:44:34 GMT -38.246796 144.812668 3,725 359 205 -128
2018-12-05 01:44:28 GMT -38.252335 144.812836 3,725 359 206 -128
2018-12-05 01:44:23 GMT -38.257690 144.812958 3,750 0 206 -384
2018-12-05 01:44:17 GMT -38.263000 144.812958 3,800 0 205 -384
2018-12-05 01:44:14 GMT -38.266125 144.812881 3,800 1 204 -384
2018-12-05 01:44:11 GMT -38.268593 144.812820 3,825 1 204 -384
2018-12-05 01:44:06 GMT -38.273853 144.812469 3,850 3 202 64
2018-12-05 01:44:00 GMT -38.279301 144.811859 3,850 7 203 64
2018-12-05 01:43:54 GMT -38.284515 144.810730 3,850 11 205 -128
2018-12-05 01:43:49 GMT -38.289680 144.809113 3,850 16 205 -384
2018-12-05 01:43:41 GMT -38.295547 144.806641 3,900 19 204 -640
2018-12-05 01:43:37 GMT -38.299736 144.804703 3,975 22 202 -960
2018-12-05 01:43:32 GMT -38.304344 144.802078 4,075 27 199 -1664
2018-12-05 01:43:26 GMT -38.309139 144.797958 4,250 40 192 -832
2018-12-05 01:43:21 GMT -38.312027 144.794373 4,275 45 188 -576
2018-12-05 01:43:15 GMT -38.315613 144.789536 4,350 48 185 -640
2018-12-05 01:43:09 GMT -38.318893 144.784439 4,400 53 183 -384
2018-12-05 01:43:04 GMT -38.321339 144.779678 4,425 59 181 -448
2018-12-05 01:42:58 GMT -38.323654 144.774445 4,475 62 178 -448
2018-12-05 01:42:53 GMT -38.325577 144.769592 4,500 64 175 -128
2018-12-05 01:42:46 GMT -38.327435 144.764450 4,525 66 175 0
2018-12-05 01:42:41 GMT -38.329296 144.758957 4,500 66 175 0
2018-12-05 01:42:36 GMT -38.331070 144.753754 4,525 66 175 -64
2018-12-05 01:42:30 GMT -38.332741 144.748032 4,500 73 175 768
2018-12-05 01:42:25 GMT -38.333633 144.742889 4,425 84 178 2048
2018-12-05 01:42:19 GMT -38.333496 144.736221 4,175 102 191 2816
2018-12-05 01:42:14 GMT -38.331997 144.730835 3,975 117 207 1216
2018-12-05 01:42:07 GMT -38.328598 144.723801 3,900 122 215 -256
2018-12-05 01:42:03 GMT -38.326172 144.718979 3,900 122 215 -1024
2018-12-05 01:41:56 GMT -38.322601 144.711746 4,100 120 208 -3008
2018-12-05 01:41:51 GMT -38.320869 144.706604 4,325 102 196 -1984
2018-12-05 01:41:48 GMT -38.320545 144.703018 4,425 87 188 -1536
2018-12-05 01:41:44 GMT -38.320816 144.698944 4,475 81 185 -1408
2018-12-05 01:41:39 GMT -38.322052 144.693451 4,625 66 172 -960
2018-12-05 01:41:33 GMT -38.324066 144.687668 4,750 64 168 -448
2018-12-05 01:41:29 GMT -38.325348 144.684158 4,750 65 165 320
2018-12-05 01:41:26 GMT -38.326126 144.681992 4,750 66 166 320
2018-12-05 01:41:22 GMT -38.327499 144.677841 4,725 67 167 320
2018-12-05 01:41:16 GMT -38.329109 144.672562 4,700 69 169 -128
2018-12-05 01:41:11 GMT -38.330505 144.667725 4,700 70 169 -128
2018-12-05 01:41:07 GMT -38.331619 144.663696 4,700 71 167 192
2018-12-05 01:41:01 GMT -38.332672 144.659607 4,675 71 168 448
2018-12-05 01:40:58 GMT -38.333439 144.656631 4,650 72 169 192
2018-12-05 01:40:51 GMT -38.335236 144.649506 4,675 71 170 -384
2018-12-05 01:40:48 GMT -38.336094 144.646240 4,675 72 166 192
2018-12-05 01:40:44 GMT -38.336975 144.642731 4,675 72 167 0
2018-12-05 01:40:37 GMT -38.338840 144.635483 4,675 71 167 -64
2018-12-05 01:40:33 GMT -38.339722 144.632034 4,675 75 167 256
2018-12-05 01:40:30 GMT -38.340317 144.629395 4,675 76 167 320
2018-12-05 01:40:25 GMT -38.341167 144.624496 4,650 80 168 384
2018-12-05 01:40:22 GMT -38.341496 144.620865 4,625 86 171 -192
2018-12-05 01:40:14 GMT -38.340912 144.612396 4,700 104 169 -576
2018-12-05 01:40:10 GMT -38.340282 144.609818 4,725 109 167 -512
2018-12-05 01:40:02 GMT -38.337250 144.602341 4,775 126 164 448
2018-12-05 01:39:59 GMT -38.336151 144.600525 4,725 132 166 448
2018-12-05 01:39:48 GMT -38.329807 144.592133 4,675 135 170 -256
2018-12-05 01:39:39 GMT -38.325027 144.586914 4,700 146 168 256
2018-12-05 01:39:36 GMT -38.322918 144.585327 4,700 153 169 576
2018-12-05 01:39:28 GMT -38.316833 144.582886 4,625 172 173 64
2018-12-05 01:39:25 GMT -38.314270 144.582642 4,625 179 173 -64
2018-12-05 01:39:17 GMT -38.307816 144.583817 4,625 198 168 -64
2018-12-05 01:39:14 GMT -38.305836 144.584671 4,650 203 167 -192
2018-12-05 01:39:03 GMT -38.298714 144.590759 4,675 224 159 0
2018-12-05 01:38:54 GMT -38.294540 144.597076 4,650 241 151 576
2018-12-05 01:38:50 GMT -38.293545 144.598999 4,650 238 154 384
2018-12-05 01:38:43 GMT -38.290474 144.605515 4,600 240 154 192
2018-12-05 01:38:39 GMT -38.289597 144.607483 4,575 241 153 320
2018-12-05 01:38:32 GMT -38.286564 144.614227 4,525 241 152 512
2018-12-05 01:38:29 GMT -38.285660 144.616135 4,500 239 152 320
2018-12-05 01:38:21 GMT -38.282822 144.622208 4,450 242 153 192
2018-12-05 01:38:18 GMT -38.281631 144.625076 4,450 243 151 256
2018-12-05 01:38:11 GMT -38.279346 144.630707 4,425 244 151 512
2018-12-05 01:38:07 GMT -38.278152 144.633789 4,375 244 150 832
2018-12-05 01:37:58 GMT -38.275295 144.640747 4,275 242 155 512
2018-12-05 01:37:55 GMT -38.274399 144.642960 4,250 241 156 576
2018-12-05 01:37:47 GMT -38.271198 144.649872 4,150 239 157 1024
2018-12-05 01:37:44 GMT -38.270176 144.651901 4,100 238 160 1024
2018-12-05 01:37:33 GMT -38.265568 144.660797 3,850 236 169 1664
2018-12-05 01:37:28 GMT -38.263229 144.665054 3,725 236 179 512
2018-12-05 01:37:25 GMT -38.261719 144.667847 3,700 236 181 320
2018-12-05 01:37:22 GMT -38.260120 144.670715 3,675 235 180 128
2018-12-05 01:37:13 GMT -38.255859 144.678436 3,675 235 177 -256
2018-12-05 01:37:09 GMT -38.254623 144.680649 3,700 235 176 -320
2018-12-05 01:37:06 GMT -38.252953 144.683609 3,725 235 173 -192
2018-12-05 01:37:02 GMT -38.250809 144.687378 3,725 234 170 192
2018-12-05 01:36:59 GMT -38.249413 144.689758 3,725 234 170 192
2018-12-05 01:36:51 GMT -38.245422 144.696259 3,725 232 166 -1728
2018-12-05 01:36:48 GMT -38.244003 144.698532 3,775 232 160 -2688
2018-12-05 01:36:44 GMT -38.242218 144.701279 4,000 231 145 -3200
2018-12-05 01:36:37 GMT -38.239700 144.704956 4,250 228 111 -768
2018-12-05 01:36:33 GMT -38.238831 144.706131 4,300 228 113 -448
2018-12-05 01:36:28 GMT -38.236519 144.709290 4,350 227 121 -384
2018-12-05 01:36:25 GMT -38.235443 144.710693 4,350 228 123 -128
2018-12-05 01:36:22 GMT -38.234070 144.712616 4,350 229 134 0
2018-12-05 01:36:16 GMT -38.231815 144.715790 4,350 228 137 -128
2018-12-05 01:36:13 GMT -38.230957 144.716934 4,350 228 143 -256
2018-12-05 01:36:09 GMT -38.228790 144.720032 4,375 228 145 -128
2018-12-05 01:36:05 GMT -38.225922 144.723892 4,250 227 150 1152
2018-12-05 01:35:59 GMT -38.224228 144.726120 4,250 227 150 1152
2018-12-05 01:35:52 GMT -38.220108 144.731430 4,125 225 154 1152
2018-12-05 01:35:42 GMT -38.215153 144.737411 3,950 223 157 1024
2018-12-05 01:35:30 GMT -38.208344 144.745102 3,750 221 156 512
2018-12-05 01:35:26 GMT -38.207283 144.746246 3,750 220 155 320
2018-12-05 01:35:20 GMT -38.202999 144.750717 3,700 219 151 -960
2018-12-05 01:35:16 GMT -38.200672 144.753052 3,750 218 149 -1600
2018-12-05 01:35:06 GMT -38.196350 144.757080 4,050 216 122 -2176
2018-12-05 01:35:00 GMT -38.193459 144.759506 4,250 214 113 -1536
2018-12-05 01:34:57 GMT -38.191643 144.761002 4,275 213 119 -448
2018-12-05 01:34:51 GMT -38.189220 144.762909 4,300 212 124 -384
2018-12-05 01:34:46 GMT -38.186150 144.765228 4,350 211 132 -448
2018-12-05 01:34:43 GMT -38.184631 144.766434 4,375 211 134 -384
2018-12-05 01:34:34 GMT -38.179871 144.769943 4,350 210 143 896
2018-12-05 01:34:26 GMT -38.174744 144.773514 4,225 208 165 512
2018-12-05 01:34:22 GMT -38.172089 144.775330 4,200 208 173 -64
2018-12-05 01:34:11 GMT -38.163849 144.780212 4,350 199 169 -640
2018-12-05 01:34:00 GMT -38.155975 144.783554 4,325 198 161 640
2018-12-05 01:33:48 GMT -38.147552 144.786774 3,575 194 202 -896
2018-12-05 01:33:39 GMT -38.140594 144.789108 4,075 196 163 3264
2018-12-05 01:33:26 GMT -38.129822 144.792633 3,625 194 202 -896
2018-12-05 01:33:03 GMT -38.118370 144.813354 3,900 219 201 -2304
2018-12-05 01:32:51 GMT -38.108871 144.813599 3,900 143 196 1472
2018-12-05 01:32:43 GMT -38.103195 144.806473 3,600 132 209 2176
2018-12-05 01:32:40 GMT -38.101044 144.803543 3,525 132 215 1280
2018-12-05 01:32:31 GMT -38.094315 144.796066 3,650 166 228 -2816
2018-12-05 01:32:27 GMT -38.091694 144.795685 3,800 184 226 -1600
2018-12-05 01:32:20 GMT -38.083466 144.799973 3,775 224 229 576
2018-12-05 01:32:17 GMT -38.081268 144.803146 3,750 233 234 -1600
2018-12-05 01:32:08 GMT -38.074657 144.810486 3,900 209 228 0
2018-12-05 01:32:04 GMT -38.071724 144.811264 3,875 183 229 192
2018-12-05 01:31:57 GMT -38.063156 144.809357 3,900 164 229 256
2018-12-05 01:31:54 GMT -38.059853 144.808228 3,875 164 229 640
2018-12-05 01:31:46 GMT -38.051380 144.805237 3,775 163 231 704
2018-12-05 01:31:42 GMT -38.047852 144.803955 3,750 164 227 640
2018-12-05 01:31:35 GMT -38.039932 144.802612 3,675 183 223 896
2018-12-05 01:31:31 GMT -38.035904 144.803192 3,625 191 219 1280
2018-12-05 01:31:26 GMT -38.031189 144.804718 3,525 201 217 1088
2018-12-05 01:31:22 GMT -38.028477 144.806015 3,475 202 215 1024
2018-12-05 01:31:19 GMT -38.025124 144.807693 3,400 202 212 1088
2018-12-05 01:31:15 GMT -38.020981 144.809830 3,325 203 209 1024
2018-12-05 01:31:12 GMT -38.018467 144.811142 3,275 204 206 960
2018-12-05 01:31:07 GMT -38.014652 144.813232 3,200 204 202 768
2018-12-05 01:31:04 GMT -38.011963 144.814713 3,175 204 199 704
2018-12-05 01:31:01 GMT -38.009125 144.816284 3,125 204 195 832
2018-12-05 01:30:56 GMT -38.004967 144.818497 3,050 204 189 960
2018-12-05 01:30:53 GMT -38.002945 144.819611 3,000 205 183 896
2018-12-05 01:30:49 GMT -37.999615 144.821533 2,950 204 182 832
2018-12-05 01:30:44 GMT -37.995937 144.823563 2,875 204 178 768
2018-12-05 01:30:41 GMT -37.993240 144.825043 2,825 204 179 896
2018-12-05 01:30:38 GMT -37.991051 144.826202 2,800 203 180 896
2018-12-05 01:30:33 GMT -37.987061 144.828323 2,725 203 183 640
2018-12-05 01:30:30 GMT -37.985088 144.829361 2,700 203 184 512
2018-12-05 01:30:27 GMT -37.982300 144.830841 2,675 203 185 576
2018-12-05 01:30:21 GMT -37.977966 144.833176 2,575 203 186 1792
2018-12-05 01:30:18 GMT -37.976383 144.834015 2,550 204 187 2112
2018-12-05 01:30:15 GMT -37.973312 144.835754 2,400 204 192 2560
2018-12-05 01:30:10 GMT -37.967258 144.839157 2,150 205 206 2688
2018-12-05 01:30:04 GMT -37.963943 144.841003 1,925 205 216 1792
2018-12-05 01:29:58 GMT -37.957439 144.844772 1,800 205 226 -192
2018-12-05 01:29:53 GMT -37.952728 144.847366 1,825 204 225 -192
2018-12-05 01:29:47 GMT -37.947418 144.850235 1,850 204 223 192
2018-12-05 01:29:42 GMT -37.942062 144.853210 1,825 204 224 0
2018-12-05 01:29:37 GMT -37.937420 144.855804 1,825 205 224 -64
2018-12-05 01:29:34 GMT -37.935791 144.856720 1,825 205 224 0
2018-12-05 01:29:30 GMT -37.930847 144.859528 1,825 204 224 192
2018-12-05 01:29:24 GMT -37.925037 144.862732 1,800 204 224 64
2018-12-05 01:29:19 GMT -37.920364 144.865250 1,800 203 224 -192
2018-12-05 01:29:15 GMT -37.916611 144.867218 1,825 203 224 -128
2018-12-05 01:29:12 GMT -37.913635 144.868759 1,825 203 224 -128
2018-12-05 01:29:06 GMT -37.909534 144.870865 1,825 203 222 64
2018-12-05 01:29:03 GMT -37.904785 144.873306 1,825 202 222 64
2018-12-05 01:29:00 GMT -37.902374 144.874542 1,825 202 222 64
2018-12-05 01:28:56 GMT -37.898643 144.876465 1,825 203 222 -64
2018-12-05 01:28:53 GMT -37.895691 144.877991 1,825 203 222 64
2018-12-05 01:28:49 GMT -37.891479 144.880157 1,825 203 223 320
2018-12-05 01:28:45 GMT -37.887749 144.882141 1,800 203 223 128
2018-12-05 01:28:40 GMT -37.883240 144.884537 1,800 203 224 -128
2018-12-05 01:28:36 GMT -37.879761 144.886292 1,800 202 224 -256
2018-12-05 01:28:33 GMT -37.876949 144.887695 1,800 201 224 -64
2018-12-05 01:28:29 GMT -37.872665 144.889664 1,825 200 223 0
2018-12-05 01:28:25 GMT -37.869049 144.891144 1,825 195 222 192
2018-12-05 01:28:22 GMT -37.865730 144.892120 1,800 191 222 128
2018-12-05 01:28:17 GMT -37.860607 144.893066 1,800 188 222 192
2018-12-05 01:28:13 GMT -37.856884 144.893661 1,800 187 224 192
2018-12-05 01:28:09 GMT -37.853668 144.894180 1,775 187 225 192
2018-12-05 01:28:06 GMT -37.849205 144.894745 1,750 186 226 256
2018-12-05 01:28:00 GMT -37.842407 144.895523 1,725 185 228 320
2018-12-05 01:27:53 GMT -37.830303 144.896713 1,725 185 232 -704
2018-12-05 01:27:48 GMT -37.830303 144.896713 1,750 185 231 -640
2018-12-05 01:27:43 GMT -37.825184 144.897247 1,775 185 229 -64
2018-12-05 01:27:39 GMT -37.819691 144.897781 1,800 185 228 -512
2018-12-05 01:27:36 GMT -37.818619 144.897903 1,800 185 228 -640
2018-12-05 01:27:32 GMT -37.813171 144.898438 1,875 185 225 -960
2018-12-05 01:27:29 GMT -37.809952 144.898804 1,900 184 220 1664
2018-12-05 01:27:26 GMT -37.806656 144.899094 1,925 185 220 1088
2018-12-05 01:27:21 GMT -37.801441 144.899521 1,800 184 222 1344
2018-12-05 01:27:15 GMT -37.795258 144.899963 1,725 184 227 128
2018-12-05 01:27:08 GMT -37.787849 144.900467 1,825 183 218 -512
2018-12-05 01:27:04 GMT -37.783890 144.900711 1,825 183 206 1216
2018-12-05 01:27:00 GMT -37.780167 144.900894 1,750 183 197 2624
2018-12-05 01:26:57 GMT -37.777496 144.901016 1,450 181 197 1408
2018-12-05 01:26:53 GMT -37.773468 144.901138 1,475 181 198 1472
2018-12-05 01:26:49 GMT -37.770672 144.901184 1,375 181 196 1152
2018-12-05 01:26:46 GMT -37.767086 144.901245 1,325 181 191 1536
2018-12-05 01:26:41 GMT -37.756844 144.901428 1,125 180 154 192
2018-12-05 01:26:33 GMT -37.756844 144.901428 1,050 181 178 576
2018-12-05 01:26:29 GMT -37.752979 144.901489 1,025 182 169 -64
2018-12-05 01:26:24 GMT -37.749256 144.901550 1,025 180 154 192
2018-12-05 01:26:17 GMT -37.745159 144.901550 975 180 138 1664
2018-12-05 01:26:13 GMT -37.742134 144.901489 800 179 131 2816
2018-12-05 01:26:06 GMT -37.738174 144.901428 525 179 131 2816

Making use of Plane Finder data

You are free to use the raw flight data, aircraft information and images provided in this report for your own purposes provided the data is correctly attributed to Plane Finder. We ask that you please credit Plane Finder and link to planefinder.net in close proximity to the content.

Optionally one of the following logos (no smaller then 150x24px) can be used and must link to planefinder.net

Embedding the Plane Finder map

You are welcome to embed the Plane Finder playback map on your website to offer visitors a more interactive experience. We suggest using the following HTML code:

<iframe src="//planefinder.net/data/report/ZPM-VH-ZPM-7700-squawk-2018-12-05/map" width="800" height="600" seamless="seamless"></iframe>

Where our data comes from

Plane Finder has a global network of data feeds and antenna radars that receive data broadcast directly from aircraft. The primary technologies used are ADS-B and MLAT. We also show feeds from the FAA and a FLARM glider feed.

Click here to find out more about the Plane Finder network.

How we collect our data